Time;durP1;ratioP1;P1;durP2;ratioP2;P2;SDS_P1;SDS_P2;PMS_P1;PMS_P2;Temp;Humidity;BMP_temperature;BMP_pressure;BME280_temperature;BME280_humidity;BME280_pressure;Samples;Min_cycle;Max_cycle;Signal;HPM_P1;HPM_P2
2023/02/12 00:01:00;;;;;;;79.47;42.42;;;6.00;99.90;;;;;;2069053;28;20030;-78
2023/02/12 00:02:01;;;;;;;74.18;41.97;;;6.00;99.90;;;;;;2077541;28;20040;-78
2023/02/12 00:03:01;;;;;;;75.75;42.50;;;6.00;99.90;;;;;;2086509;28;20041;-78
2023/02/12 00:04:02;;;;;;;77.32;42.13;;;6.00;99.90;;;;;;2090959;28;20056;-77
2023/02/12 00:05:03;;;;;;;81.60;44.25;;;6.00;99.90;;;;;;2086785;28;20519;-77
2023/02/12 00:06:05;;;;;;;77.65;43.13;;;6.00;99.90;;;;;;2079587;28;20041;-77
2023/02/12 00:07:05;;;;;;;81.63;43.13;;;6.00;99.90;;;;;;2078803;28;20025;-78
2023/02/12 00:08:07;;;;;;;80.03;43.58;;;6.00;99.90;;;;;;2089581;28;20704;-77
2023/02/12 00:09:08;;;;;;;84.00;44.63;;;6.00;99.90;;;;;;2073821;28;20029;-77
2023/02/12 00:10:08;;;;;;;80.35;43.25;;;6.00;99.90;;;;;;2075726;28;20113;-77
2023/02/12 00:11:14;;;;;;;80.75;43.45;;;6.00;99.90;;;;;;2082627;28;20527;-78
2023/02/12 00:12:15;;;;;;;84.55;44.17;;;6.00;99.90;;;;;;2090279;28;20021;-79
2023/02/12 00:13:16;;;;;;;83.15;44.13;;;6.00;99.90;;;;;;2082062;28;20033;-77
2023/02/12 00:14:16;;;;;;;82.00;43.22;;;6.00;99.90;;;;;;2074009;28;20029;-77
2023/02/12 00:15:17;;;;;;;81.30;43.47;;;6.00;99.90;;;;;;2067763;28;20495;-77
2023/02/12 00:16:20;;;;;;;81.10;43.08;;;5.90;99.90;;;;;;2073810;28;20064;-78
2023/02/12 00:17:21;;;;;;;82.63;43.40;;;5.90;99.90;;;;;;2079235;28;20032;-77
2023/02/12 00:18:21;;;;;;;80.88;44.40;;;6.00;99.90;;;;;;2071269;28;20100;-78
2023/02/12 00:19:22;;;;;;;86.65;44.20;;;6.00;99.90;;;;;;2084270;28;20033;-78
2023/02/12 00:20:23;;;;;;;83.85;44.33;;;6.00;99.90;;;;;;2082394;28;20642;-78
2023/02/12 00:21:24;;;;;;;85.65;44.97;;;6.00;99.90;;;;;;2063907;28;20121;-78
2023/02/12 00:22:25;;;;;;;77.78;43.20;;;6.00;99.90;;;;;;2069339;28;20556;-79
2023/02/12 00:23:26;;;;;;;85.10;46.00;;;6.00;99.90;;;;;;2072502;28;20024;-79
2023/02/12 00:24:26;;;;;;;88.07;45.65;;;5.90;99.90;;;;;;2080145;28;20709;-79
2023/02/12 00:25:27;;;;;;;85.00;44.55;;;5.90;99.90;;;;;;2068687;28;20048;-78
2023/02/12 00:26:28;;;;;;;85.88;44.38;;;6.00;99.90;;;;;;2082267;28;20095;-78
2023/02/12 00:27:32;;;;;;;87.07;44.40;;;6.00;99.90;;;;;;2075658;28;20029;-77
2023/02/12 00:28:32;;;;;;;85.65;44.60;;;6.00;99.90;;;;;;2071465;28;20033;-78
2023/02/12 00:29:33;;;;;;;83.40;43.78;;;6.00;99.90;;;;;;2071246;28;20222;-79
2023/02/12 00:30:34;;;;;;;84.40;44.10;;;5.90;99.90;;;;;;2066105;28;20040;-78
2023/02/12 00:31:34;;;;;;;82.53;44.28;;;5.90;99.90;;;;;;2072091;28;20033;-78
2023/02/12 00:32:36;;;;;;;82.85;44.22;;;5.90;99.90;;;;;;2081688;28;20116;-78
2023/02/12 00:33:36;;;;;;;84.47;44.67;;;5.90;99.90;;;;;;2082048;28;20035;-78
2023/02/12 00:34:37;;;;;;;85.78;44.72;;;6.00;99.90;;;;;;2083033;28;20040;-79
2023/02/12 00:35:38;;;;;;;85.35;44.75;;;6.00;99.90;;;;;;2092898;28;20037;-78
2023/02/12 00:36:38;;;;;;;85.43;44.88;;;6.00;99.90;;;;;;2082023;28;20075;-77
2023/02/12 00:37:39;;;;;;;85.22;46.08;;;5.90;99.90;;;;;;2081576;28;20415;-77
2023/02/12 00:38:39;;;;;;;87.93;45.72;;;6.00;99.90;;;;;;2081755;28;20135;-77
2023/02/12 00:39:41;;;;;;;87.85;45.63;;;6.00;99.90;;;;;;2075681;28;20036;-77
2023/02/12 00:40:41;;;;;;;87.82;45.17;;;6.00;99.90;;;;;;2081891;28;20130;-78
2023/02/12 00:41:42;;;;;;;89.55;45.88;;;6.00;99.90;;;;;;2095644;28;20028;-79
2023/02/12 00:42:42;;;;;;;87.85;46.58;;;6.00;99.90;;;;;;2087826;28;20599;-78
2023/02/12 00:43:43;;;;;;;87.85;45.45;;;6.00;99.90;;;;;;2083674;28;20036;-76
2023/02/12 00:44:44;;;;;;;85.85;44.38;;;6.00;99.90;;;;;;2085843;28;20040;-76
2023/02/12 00:45:45;;;;;;;89.15;46.10;;;6.00;99.90;;;;;;2084408;28;20036;-77
2023/02/12 00:46:46;;;;;;;87.18;45.78;;;5.90;99.90;;;;;;2083468;28;20119;-76
2023/02/12 00:47:47;;;;;;;84.57;43.88;;;6.00;99.90;;;;;;2094285;28;20029;-76
2023/02/12 00:48:49;;;;;;;85.82;44.97;;;6.00;99.90;;;;;;2077177;28;20104;-76
2023/02/12 00:49:52;;;;;;;85.30;44.53;;;6.00;99.90;;;;;;2067842;28;20588;-77
2023/02/12 00:50:53;;;;;;;88.68;44.17;;;6.00;99.90;;;;;;2067042;28;20026;-76
2023/02/12 00:51:53;;;;;;;92.18;46.75;;;6.00;99.90;;;;;;2066486;28;20484;-76
2023/02/12 00:52:54;;;;;;;93.72;46.88;;;6.00;99.90;;;;;;2076452;28;20021;-88
2023/02/12 00:53:55;;;;;;;86.45;44.83;;;6.00;99.90;;;;;;2091953;28;20145;-87
2023/02/12 00:54:55;;;;;;;89.18;45.95;;;6.00;99.90;;;;;;2084701;28;20024;-90
2023/02/12 00:55:56;;;;;;;92.80;47.00;;;5.90;99.90;;;;;;2085321;28;20079;-88
2023/02/12 00:56:57;;;;;;;92.53;46.55;;;6.00;99.90;;;;;;2085949;28;20189;-90
2023/02/12 00:57:59;;;;;;;92.97;45.60;;;5.90;99.90;;;;;;2099028;28;20024;-87
2023/02/12 00:59:02;;;;;;;88.93;45.47;;;6.00;99.90;;;;;;2091706;28;20031;-89
2023/02/12 01:00:04;;;;;;;88.68;46.78;;;6.00;99.90;;;;;;2088876;28;20817;-89
2023/02/12 01:01:04;;;;;;;91.32;44.97;;;6.00;99.90;;;;;;2094293;28;20033;-89
2023/02/12 01:02:05;;;;;;;88.38;44.33;;;6.00;99.90;;;;;;2093298;28;20044;-87
2023/02/12 01:03:06;;;;;;;88.07;46.03;;;6.00;99.90;;;;;;2105625;28;20020;-88
2023/02/12 01:04:06;;;;;;;92.50;46.50;;;6.00;99.90;;;;;;2095815;28;20036;-89
2023/02/12 01:05:07;;;;;;;93.20;45.67;;;6.00;99.90;;;;;;2094483;28;20051;-90
2023/02/12 01:06:08;;;;;;;87.22;46.45;;;6.00;99.90;;;;;;2097672;28;20092;-89
2023/02/12 01:07:09;;;;;;;89.50;45.40;;;6.00;99.90;;;;;;2096750;28;20084;-90
2023/02/12 01:08:12;;;;;;;89.13;45.58;;;6.00;99.90;;;;;;2103541;28;20028;-89
2023/02/12 01:09:13;;;;;;;89.25;45.85;;;6.00;99.90;;;;;;2095022;28;20373;-90
2023/02/12 01:10:14;;;;;;;95.22;45.88;;;5.90;99.90;;;;;;2096302;28;20108;-89
2023/02/12 01:11:14;;;;;;;89.60;46.20;;;6.00;99.90;;;;;;2081946;28;20060;-89
2023/02/12 01:12:15;;;;;;;90.50;45.80;;;5.90;99.90;;;;;;2085047;28;20765;-89
2023/02/12 01:13:16;;;;;;;89.97;46.00;;;6.00;99.90;;;;;;2083837;28;20488;-89
2023/02/12 01:14:16;;;;;;;93.28;46.95;;;6.00;99.90;;;;;;2096238;28;20063;-90
2023/02/12 01:15:18;;;;;;;91.18;46.72;;;5.90;99.90;;;;;;2092357;28;20677;-91
2023/02/12 01:16:21;;;;;;;89.00;45.60;;;6.00;99.90;;;;;;2091515;28;20036;-88
2023/02/12 01:17:23;;;;;;;90.50;45.30;;;5.90;99.90;;;;;;2092690;28;20029;-89
2023/02/12 01:18:23;;;;;;;92.78;46.42;;;5.90;99.90;;;;;;2077472;28;20029;-89
2023/02/12 01:19:24;;;;;;;92.00;45.25;;;5.90;99.90;;;;;;2078971;28;20026;-90
2023/02/12 01:20:25;;;;;;;87.85;46.22;;;5.90;99.90;;;;;;2087040;28;20029;-88
2023/02/12 01:21:29;;;;;;;85.22;44.20;;;5.90;99.90;;;;;;2088559;28;20021;-89
2023/02/12 01:22:30;;;;;;;86.55;44.40;;;5.90;99.90;;;;;;2085462;28;20033;-89
2023/02/12 01:23:30;;;;;;;90.47;45.67;;;5.90;99.90;;;;;;2097340;28;20040;-89
2023/02/12 01:24:31;;;;;;;87.82;45.13;;;5.90;99.90;;;;;;2097743;28;20029;-87
2023/02/12 01:25:32;;;;;;;87.20;44.50;;;5.90;99.90;;;;;;2099038;28;20130;-89
2023/02/12 01:26:32;;;;;;;85.72;44.30;;;6.00;99.90;;;;;;2093780;28;20629;-90
2023/02/12 01:27:33;;;;;;;87.00;44.70;;;6.00;99.90;;;;;;2094182;28;20123;-89
2023/02/12 01:28:33;;;;;;;87.22;44.33;;;5.90;99.90;;;;;;2095605;28;20103;-86
2023/02/12 01:29:34;;;;;;;86.82;43.47;;;6.00;99.90;;;;;;2103944;28;20031;-91
2023/02/12 01:30:35;;;;;;;88.65;44.60;;;6.00;99.90;;;;;;2100176;28;20115;-88
2023/02/12 01:31:37;;;;;;;86.22;44.85;;;5.90;99.90;;;;;;2101369;28;20039;-91
2023/02/12 01:32:38;;;;;;;84.07;42.83;;;6.00;99.90;;;;;;2102358;28;20095;-90
2023/02/12 01:33:40;;;;;;;90.13;44.67;;;6.00;99.90;;;;;;2095384;28;20075;-92
2023/02/12 01:34:40;;;;;;;90.57;45.80;;;6.00;99.90;;;;;;2086113;28;20075;-91
2023/02/12 01:35:41;;;;;;;91.60;46.05;;;6.00;99.90;;;;;;2080031;28;20048;-84
2023/02/12 01:36:41;;;;;;;90.95;46.17;;;6.00;99.90;;;;;;2082433;28;20029;-91
2023/02/12 01:37:42;;;;;;;87.18;43.80;;;6.00;99.90;;;;;;2091848;28;20036;-87
2023/02/12 01:38:43;;;;;;;93.30;45.22;;;6.00;99.90;;;;;;2092581;28;20084;-90
2023/02/12 01:39:44;;;;;;;93.00;45.83;;;6.00;99.90;;;;;;2086688;28;20033;-84
2023/02/12 01:40:44;;;;;;;89.28;45.00;;;6.00;99.90;;;;;;2089938;28;20052;-88
2023/02/12 01:41:45;;;;;;;90.53;44.67;;;6.00;99.90;;;;;;2089725;28;20021;-88
2023/02/12 01:42:46;;;;;;;88.45;44.63;;;6.00;99.90;;;;;;2090868;28;20128;-90
2023/02/12 01:44:08;;;;;;;91.60;45.20;;;6.00;99.90;;;;;;2089364;28;20060;-88
2023/02/12 01:45:11;;;;;;;88.47;45.20;;;6.00;99.90;;;;;;2092753;28;20037;-89
2023/02/12 01:46:13;;;;;;;90.50;45.10;;;5.90;99.90;;;;;;2097058;28;20024;-88
2023/02/12 01:47:17;;;;;;;92.38;44.95;;;5.90;99.90;;;;;;2091058;28;20033;-88
2023/02/12 01:48:19;;;;;;;94.78;45.10;;;5.90;99.90;;;;;;2092421;28;20029;-90
2023/02/12 01:49:21;;;;;;;94.82;46.45;;;5.90;99.90;;;;;;2085272;28;20033;-89
2023/02/12 01:50:22;;;;;;;93.97;45.83;;;5.90;99.90;;;;;;2097639;28;20029;-85
2023/02/12 01:51:24;;;;;;;99.55;46.03;;;5.90;99.90;;;;;;2100494;28;20028;-90
2023/02/12 01:52:31;;;;;;;90.70;45.45;;;5.90;99.90;;;;;;2083610;28;20017;-89
2023/02/12 01:53:39;;;;;;;93.15;45.33;;;5.90;99.90;;;;;;2073698;28;20037;-89
2023/02/12 01:54:40;;;;;;;90.50;44.90;;;5.90;99.90;;;;;;2097356;28;20024;-88
2023/02/12 01:55:41;;;;;;;93.15;45.30;;;6.00;99.90;;;;;;2096402;28;20395;-87
2023/02/12 01:56:43;;;;;;;95.50;45.75;;;5.90;99.90;;;;;;2098124;28;20479;-86
2023/02/12 01:57:46;;;;;;;93.85;45.97;;;5.90;99.90;;;;;;2081189;28;20029;-89
2023/02/12 01:58:50;;;;;;;89.93;45.08;;;5.90;99.90;;;;;;2090448;28;20055;-88
2023/02/12 01:59:53;;;;;;;95.18;46.05;;;5.90;99.90;;;;;;2092624;28;20025;-90
2023/02/12 02:00:54;;;;;;;95.82;46.28;;;5.90;99.90;;;;;;2093829;28;20102;-89
2023/02/12 02:01:55;;;;;;;99.13;47.70;;;5.90;99.90;;;;;;2099436;28;20066;-84
2023/02/12 02:02:58;;;;;;;90.38;45.17;;;5.90;99.90;;;;;;2098610;28;20024;-89
2023/02/12 02:04:09;;;;;;;89.38;45.47;;;5.90;99.90;;;;;;2092481;28;20032;-90
2023/02/12 02:05:13;;;;;;;94.82;45.13;;;5.90;99.90;;;;;;2102927;28;20594;-93
2023/02/12 02:06:28;;;;;;;97.75;45.88;;;5.90;99.90;;;;;;2090480;28;20154;-89
2023/02/12 02:07:29;;;;;;;96.32;46.80;;;5.90;99.90;;;;;;2094081;28;20415;-90
2023/02/12 02:08:32;;;;;;;100.32;46.97;;;5.90;99.90;;;;;;2089399;28;20021;-88
2023/02/12 02:09:35;;;;;;;95.15;45.47;;;5.90;99.90;;;;;;2069824;28;20049;-89
2023/02/12 02:10:36;;;;;;;91.88;46.63;;;5.90;99.90;;;;;;2090645;28;20031;-89
2023/02/12 02:14:31;;;;;;;92.53;44.63;;;5.90;99.90;;;;;;2095623;28;20032;-89
2023/02/12 02:15:36;;;;;;;100.20;47.33;;;5.90;99.90;;;;;;2088659;28;20025;-86
2023/02/12 02:16:46;;;;;;;101.63;47.53;;;5.90;99.90;;;;;;2090627;28;20033;-87
2023/02/12 02:18:07;;;;;;;98.28;46.38;;;5.90;99.90;;;;;;2096637;28;20048;-90
2023/02/12 02:19:42;;;;;;;93.03;45.00;;;5.90;99.90;;;;;;2101329;28;22026;-88
2023/02/12 02:21:07;;;;;;;94.57;44.95;;;5.90;99.90;;;;;;2085358;28;20128;-85
2023/02/12 02:22:38;;;;;;;96.78;46.03;;;5.90;99.90;;;;;;2101339;28;20398;-88
2023/02/12 02:24:17;;;;;;;90.30;43.17;;;5.90;99.90;;;;;;2090658;28;20052;-89
2023/02/12 02:25:46;;;;;;;95.97;45.03;;;5.90;99.90;;;;;;2092125;28;20036;-86
2023/02/12 02:27:10;;;;;;;94.03;44.78;;;5.90;99.90;;;;;;2102731;28;20066;-88
2023/02/12 02:28:31;;;;;;;98.75;45.33;;;5.90;99.90;;;;;;2101999;28;20081;-87
2023/02/12 02:30:06;;;;;;;88.85;44.00;;;5.90;99.90;;;;;;2091852;28;20024;-87
2023/02/12 02:31:25;;;;;;;97.32;45.10;;;5.90;99.90;;;;;;2086383;28;20087;-86
2023/02/12 02:32:31;;;;;;;92.22;44.70;;;5.90;99.90;;;;;;2090286;28;20078;-88
2023/02/12 02:33:54;;;;;;;96.30;46.60;;;5.90;99.90;;;;;;2081389;28;20045;-87
2023/02/12 02:35:08;;;;;;;94.00;45.75;;;5.90;99.90;;;;;;2084353;28;20063;-90
2023/02/12 02:36:31;;;;;;;91.18;44.92;;;5.90;99.90;;;;;;2080183;28;20500;-89
2023/02/12 02:37:39;;;;;;;94.57;44.90;;;5.90;99.90;;;;;;2101039;28;20090;-90
2023/02/12 02:38:49;;;;;;;94.97;45.67;;;5.90;99.90;;;;;;2086956;28;20032;-88
2023/02/12 02:39:55;;;;;;;90.53;44.97;;;5.90;99.90;;;;;;2090898;28;20155;-89
2023/02/12 02:41:16;;;;;;;83.60;42.72;;;6.00;99.90;;;;;;2089610;28;20470;-88
2023/02/12 02:42:40;;;;;;;90.53;44.50;;;5.90;99.90;;;;;;2094528;28;20033;-88
2023/02/12 02:43:46;;;;;;;89.47;44.72;;;5.90;99.90;;;;;;2103708;28;20048;-87
2023/02/12 02:45:19;;;;;;;87.50;43.92;;;5.90;99.90;;;;;;2096142;28;20442;-87
2023/02/12 02:46:33;;;;;;;98.13;46.55;;;6.00;99.90;;;;;;2100775;28;20406;-88
2023/02/12 02:47:43;;;;;;;93.57;45.25;;;6.00;99.90;;;;;;2098232;28;20167;-89
2023/02/12 02:48:49;;;;;;;96.40;46.80;;;5.90;99.90;;;;;;2094931;28;20067;-79
2023/02/12 02:49:58;;;;;;;95.05;44.97;;;5.90;99.90;;;;;;2099307;28;20037;-87
2023/02/12 02:51:09;;;;;;;96.78;47.25;;;5.90;99.90;;;;;;2099733;28;20043;-89
2023/02/12 02:52:35;;;;;;;97.65;45.70;;;5.90;99.90;;;;;;2094083;28;20028;-85
2023/02/12 02:53:43;;;;;;;91.13;44.55;;;5.90;99.90;;;;;;2102455;28;20080;-87
2023/02/12 02:54:48;;;;;;;93.05;44.85;;;5.90;99.90;;;;;;2097773;28;20590;-88
2023/02/12 02:55:52;;;;;;;91.30;45.40;;;5.90;99.90;;;;;;2092327;28;20056;-86
2023/02/12 02:56:59;;;;;;;98.25;46.53;;;5.90;99.90;;;;;;2097362;28;20150;-88
2023/02/12 02:58:24;;;;;;;97.57;46.78;;;5.90;99.90;;;;;;2097628;28;20562;-87
2023/02/12 02:59:33;;;;;;;93.35;45.38;;;5.90;99.90;;;;;;2088844;28;20049;-87
2023/02/12 03:00:42;;;;;;;97.07;45.88;;;5.90;99.90;;;;;;2078171;28;20037;-88
2023/02/12 03:01:49;;;;;;;97.43;45.47;;;5.90;99.90;;;;;;2095104;28;20009;-90
2023/02/12 03:03:12;;;;;;;89.43;44.60;;;5.90;99.90;;;;;;2098088;28;20024;-90
2023/02/12 03:04:44;;;;;;;97.22;45.28;;;5.90;99.90;;;;;;2093563;28;20029;-88
2023/02/12 03:05:49;;;;;;;97.95;45.35;;;5.90;99.90;;;;;;2079038;28;20114;-87
2023/02/12 03:07:04;;;;;;;91.65;45.88;;;5.90;99.90;;;;;;2090604;28;20021;-87
2023/02/12 03:08:14;;;;;;;85.95;42.90;;;5.90;99.90;;;;;;2092107;28;20570;-88
2023/02/12 03:09:43;;;;;;;95.17;45.10;;;5.90;99.90;;;;;;2082389;28;20114;-87
2023/02/12 03:10:48;;;;;;;90.00;43.78;;;5.90;99.90;;;;;;2085751;28;20301;-89
2023/02/12 03:11:50;;;;;;;85.03;43.08;;;5.90;99.90;;;;;;2091311;28;20024;-87
2023/02/12 03:13:15;;;;;;;82.78;41.75;;;5.90;99.90;;;;;;2090920;28;20474;-86
2023/02/12 03:14:22;;;;;;;81.82;41.78;;;5.90;99.90;;;;;;2092957;28;20115;-88
2023/02/12 03:15:51;;;;;;;85.05;43.53;;;5.90;99.90;;;;;;2091648;28;20052;-87
2023/02/12 03:17:26;;;;;;;88.88;42.75;;;5.90;99.90;;;;;;2094981;28;20051;-88
2023/02/12 03:18:35;;;;;;;85.47;42.65;;;6.00;99.90;;;;;;2091937;28;20028;-87
2023/02/12 03:19:44;;;;;;;92.22;45.10;;;6.00;99.90;;;;;;2086120;28;20112;-86
2023/02/12 03:20:52;;;;;;;89.30;44.42;;;6.00;99.90;;;;;;2079791;28;20508;-87
2023/02/12 03:22:06;;;;;;;86.50;44.10;;;6.00;99.90;;;;;;2089146;28;20040;-86
2023/02/12 03:23:43;;;;;;;83.50;41.90;;;6.00;99.90;;;;;;2090116;28;20047;-87
2023/02/12 03:24:50;;;;;;;77.32;39.78;;;6.00;99.90;;;;;;2071196;28;20539;-86
2023/02/12 03:26:03;;;;;;;82.97;41.55;;;6.00;99.90;;;;;;2082715;28;20122;-87
2023/02/12 03:27:31;;;;;;;87.03;43.75;;;6.00;99.90;;;;;;2092404;28;20025;-85
2023/02/12 03:28:37;;;;;;;84.10;42.05;;;6.00;99.90;;;;;;2091813;28;20050;-87
2023/02/12 03:29:38;;;;;;;89.47;43.13;;;6.00;99.90;;;;;;2090699;28;20053;-88
2023/02/12 03:31:14;;;;;;;88.10;44.50;;;5.90;99.90;;;;;;2094740;28;20058;-87
2023/02/12 03:32:35;;;;;;;86.65;41.92;;;5.90;99.90;;;;;;2092601;28;20462;-88
2023/02/12 03:34:12;;;;;;;84.68;41.58;;;6.00;99.90;;;;;;2093817;28;20247;-87
2023/02/12 03:35:15;;;;;;;85.30;41.92;;;6.00;99.90;;;;;;2096804;28;20021;-89
2023/02/12 03:36:33;;;;;;;85.72;42.08;;;6.00;99.90;;;;;;2098596;28;20032;-89
2023/02/12 03:37:45;;;;;;;86.05;42.85;;;6.00;99.90;;;;;;2103779;28;20040;-89
2023/02/12 03:38:52;;;;;;;83.72;42.88;;;6.00;99.90;;;;;;2100916;28;20013;-87
2023/02/12 03:40:05;;;;;;;84.03;41.65;;;6.00;99.90;;;;;;2099111;28;20044;-87
2023/02/12 03:41:13;;;;;;;82.60;40.90;;;6.00;99.90;;;;;;2105677;28;20606;-88
2023/02/12 03:42:23;;;;;;;82.85;41.63;;;6.00;99.90;;;;;;2106115;28;20040;-90
2023/02/12 03:43:45;;;;;;;85.50;42.85;;;6.00;99.90;;;;;;2099107;28;20192;-83
2023/02/12 03:44:49;;;;;;;88.22;42.72;;;6.00;99.90;;;;;;2094139;28;20025;-75
2023/02/12 03:46:13;;;;;;;80.88;40.08;;;6.00;99.90;;;;;;2103636;28;20040;-88
2023/02/12 03:47:38;;;;;;;75.70;38.40;;;6.00;99.90;;;;;;2111703;28;20114;-88
2023/02/12 03:48:45;;;;;;;73.40;37.85;;;6.00;99.90;;;;;;2107287;28;20096;-88
2023/02/12 03:49:55;;;;;;;79.88;40.53;;;6.00;99.90;;;;;;2100264;28;20028;-88
2023/02/12 03:51:10;;;;;;;86.80;43.78;;;6.00;99.90;;;;;;2093888;28;20096;-89
2023/02/12 03:52:13;;;;;;;83.75;43.05;;;6.00;99.90;;;;;;2095628;28;20028;-88
2023/02/12 03:53:14;;;;;;;88.32;44.63;;;6.00;99.90;;;;;;2093721;28;20041;-85
2023/02/12 03:54:18;;;;;;;94.80;45.50;;;6.10;99.90;;;;;;2094569;28;20029;-87
2023/02/12 03:55:19;;;;;;;87.65;43.70;;;6.00;99.90;;;;;;2099614;28;20028;-87
2023/02/12 03:56:31;;;;;;;88.72;44.97;;;6.00;99.90;;;;;;2095814;28;20120;-88
2023/02/12 03:57:38;;;;;;;87.72;43.45;;;6.00;99.90;;;;;;2092595;28;20037;-88
2023/02/12 03:58:41;;;;;;;85.68;42.38;;;6.10;99.90;;;;;;2095749;28;20074;-87
2023/02/12 03:59:42;;;;;;;83.90;43.20;;;6.00;99.90;;;;;;2104287;28;20027;-88
2023/02/12 04:00:44;;;;;;;93.30;46.28;;;6.10;99.90;;;;;;2097770;28;20017;-85
2023/02/12 04:01:44;;;;;;;87.10;43.83;;;6.10;99.90;;;;;;2102557;28;20017;-88
2023/02/12 04:02:45;;;;;;;83.75;43.42;;;6.10;99.90;;;;;;2094267;28;20025;-88
2023/02/12 04:03:46;;;;;;;86.35;44.25;;;6.00;99.90;;;;;;2102539;28;20052;-89
2023/02/12 04:04:47;;;;;;;92.85;46.58;;;6.00;99.90;;;;;;2101296;28;20078;-90
2023/02/12 04:05:47;;;;;;;86.53;44.38;;;6.00;99.90;;;;;;2108569;28;20081;-87
2023/02/12 04:06:49;;;;;;;81.03;41.75;;;6.00;99.90;;;;;;2088005;28;20106;-87
2023/02/12 04:07:51;;;;;;;89.65;45.17;;;6.00;99.90;;;;;;2086101;28;20032;-88
2023/02/12 04:08:57;;;;;;;93.32;47.53;;;6.00;99.90;;;;;;2093076;28;20028;-88
2023/02/12 04:09:58;;;;;;;97.82;47.28;;;6.00;99.90;;;;;;2093467;28;20032;-89
2023/02/12 04:11:32;;;;;;;91.68;47.20;;;6.00;99.90;;;;;;2096542;28;20020;-88
2023/02/12 04:12:55;;;;;;;92.60;46.45;;;6.00;99.90;;;;;;2089029;28;20037;-86
2023/02/12 04:14:24;;;;;;;86.97;44.35;;;6.00;99.90;;;;;;2087279;28;20056;-87
2023/02/12 04:15:59;;;;;;;93.45;45.22;;;6.00;99.90;;;;;;2092012;28;20032;-85
2023/02/12 04:17:11;;;;;;;97.07;46.58;;;6.00;99.90;;;;;;2098114;28;20036;-89
2023/02/12 04:18:23;;;;;;;98.80;47.42;;;6.00;99.90;;;;;;2088207;28;20842;-89
2023/02/12 04:20:03;;;;;;;103.45;47.78;;;5.90;99.90;;;;;;2088541;28;20040;-89
2023/02/12 04:21:52;;;;;;;103.18;48.47;;;5.90;99.90;;;;;;2066438;28;20039;-87
2023/02/12 04:23:35;;;;;;;97.00;45.55;;;5.90;99.90;;;;;;2068520;28;20070;-87
2023/02/12 04:25:02;;;;;;;102.07;47.45;;;6.00;99.90;;;;;;2096458;28;20029;-88
2023/02/12 04:26:47;;;;;;;108.65;49.50;;;5.90;99.90;;;;;;2097001;28;20048;-88
2023/02/12 04:28:14;;;;;;;103.68;47.38;;;5.90;99.90;;;;;;2088668;28;20031;-81
2023/02/12 04:29:27;;;;;;;101.53;47.38;;;5.90;99.90;;;;;;2097259;28;20024;-77
2023/02/12 04:30:36;;;;;;;93.72;45.05;;;5.90;99.90;;;;;;2082565;28;20036;-79
2023/02/12 04:31:52;;;;;;;101.68;47.78;;;5.90;99.90;;;;;;2086883;28;20090;-79
2023/02/12 04:33:00;;;;;;;97.32;46.72;;;5.90;99.90;;;;;;2095918;28;20028;-79
2023/02/12 04:34:10;;;;;;;96.28;47.00;;;5.90;99.90;;;;;;2091858;28;20056;-79
2023/02/12 04:35:35;;;;;;;100.40;47.70;;;5.90;99.90;;;;;;2084933;28;20033;-80
2023/02/12 04:36:44;;;;;;;103.63;48.25;;;5.90;99.90;;;;;;2076076;28;20029;-79
2023/02/12 04:38:02;;;;;;;96.82;45.97;;;5.90;99.90;;;;;;2075569;28;20037;-78
2023/02/12 04:39:15;;;;;;;94.60;45.70;;;5.90;99.90;;;;;;2088813;28;20032;-79
2023/02/12 04:40:18;;;;;;;104.32;48.05;;;5.90;99.90;;;;;;2089856;28;20067;-79
2023/02/12 04:41:19;;;;;;;104.35;49.13;;;5.90;99.90;;;;;;2091109;28;20036;-79
2023/02/12 04:42:19;;;;;;;112.63;49.35;;;5.90;99.90;;;;;;2095010;28;20256;-79
2023/02/12 04:43:27;;;;;;;99.97;47.75;;;5.90;99.90;;;;;;2093145;28;20068;-80
2023/02/12 04:44:34;;;;;;;103.85;48.60;;;5.90;99.90;;;;;;2089060;28;20025;-79
2023/02/12 04:45:36;;;;;;;106.53;48.55;;;5.90;99.90;;;;;;2085689;28;20066;-79
2023/02/12 04:46:36;;;;;;;108.28;49.95;;;5.90;99.90;;;;;;2092744;28;20947;-80
2023/02/12 04:47:37;;;;;;;104.82;48.97;;;5.90;99.90;;;;;;2092832;28;20032;-80
2023/02/12 04:48:52;;;;;;;104.00;48.42;;;5.90;99.90;;;;;;2083996;28;20035;-80
2023/02/12 04:49:52;;;;;;;105.43;49.05;;;5.90;99.90;;;;;;2083446;28;20404;-79
2023/02/12 04:50:53;;;;;;;104.65;47.92;;;5.80;99.90;;;;;;2091399;28;20039;-79
2023/02/12 04:51:53;;;;;;;103.80;47.58;;;5.90;99.90;;;;;;2083977;28;20504;-79
2023/02/12 04:52:54;;;;;;;106.13;48.72;;;5.90;99.90;;;;;;2092391;28;20039;-73
2023/02/12 04:53:54;;;;;;;104.70;48.03;;;5.80;99.90;;;;;;2092274;28;20507;-74
2023/02/12 04:54:55;;;;;;;102.85;47.97;;;5.80;99.90;;;;;;2099053;28;20029;-74
2023/02/12 04:55:55;;;;;;;100.55;47.35;;;5.80;99.90;;;;;;2087734;28;20035;-74
2023/02/12 04:56:56;;;;;;;106.10;50.08;;;5.90;99.90;;;;;;2092179;28;20024;-75
2023/02/12 04:57:57;;;;;;;104.28;48.33;;;5.80;99.90;;;;;;2078574;28;20040;-76
2023/02/12 04:58:57;;;;;;;108.20;49.75;;;5.90;99.90;;;;;;2082035;28;20021;-74
2023/02/12 04:59:58;;;;;;;106.68;48.67;;;5.80;99.90;;;;;;2083034;28;20467;-74
2023/02/12 05:00:58;;;;;;;98.38;47.63;;;5.80;99.90;;;;;;2061989;28;21026;-75
2023/02/12 05:01:59;;;;;;;93.43;45.30;;;5.80;99.90;;;;;;2072969;28;20130;-74
2023/02/12 05:03:00;;;;;;;98.07;45.92;;;5.80;99.90;;;;;;2083290;28;20065;-74
2023/02/12 05:04:01;;;;;;;100.78;47.53;;;5.80;99.90;;;;;;2094091;28;20099;-74
2023/02/12 05:05:02;;;;;;;106.85;49.03;;;5.80;99.90;;;;;;2078913;28;20037;-73
2023/02/12 05:06:04;;;;;;;104.80;48.42;;;5.80;99.90;;;;;;2083248;28;20036;-73
2023/02/12 05:07:05;;;;;;;100.57;48.53;;;5.80;99.90;;;;;;2092004;28;20016;-73
2023/02/12 05:08:05;;;;;;;96.82;46.78;;;5.80;99.90;;;;;;2091155;28;20024;-74
2023/02/12 05:09:07;;;;;;;91.00;45.08;;;5.80;99.90;;;;;;2093301;28;20020;-74
2023/02/12 05:10:08;;;;;;;98.30;46.28;;;5.80;99.90;;;;;;2090415;28;20029;-74
2023/02/12 05:11:09;;;;;;;98.72;46.30;;;5.80;99.90;;;;;;2082567;28;20522;-74
2023/02/12 05:12:10;;;;;;;103.50;47.05;;;5.90;99.90;;;;;;2071497;28;20091;-74
2023/02/12 05:13:10;;;;;;;106.95;48.80;;;5.90;99.90;;;;;;2076802;28;20108;-74
2023/02/12 05:14:11;;;;;;;111.65;50.22;;;5.90;99.90;;;;;;2083166;28;20075;-74
2023/02/12 05:15:12;;;;;;;104.80;48.35;;;5.90;99.90;;;;;;2092221;28;20040;-74
2023/02/12 05:16:12;;;;;;;102.88;48.20;;;5.90;99.90;;;;;;2082950;28;20106;-74
2023/02/12 05:17:13;;;;;;;101.88;47.17;;;5.80;99.90;;;;;;2087866;28;20043;-74
2023/02/12 05:18:13;;;;;;;101.45;47.38;;;5.90;99.90;;;;;;2095838;28;20036;-74
2023/02/12 05:19:14;;;;;;;100.38;47.70;;;5.80;99.90;;;;;;2098824;28;20062;-74
2023/02/12 05:20:15;;;;;;;103.88;47.88;;;5.80;99.90;;;;;;2077335;28;20113;-75
2023/02/12 05:21:16;;;;;;;103.00;47.28;;;5.80;99.90;;;;;;2080537;28;20029;-74
2023/02/12 05:22:16;;;;;;;94.40;45.05;;;5.80;99.90;;;;;;2080460;28;20036;-75
2023/02/12 05:23:17;;;;;;;91.05;44.47;;;5.80;99.90;;;;;;2083082;28;20041;-74
2023/02/12 05:24:17;;;;;;;87.63;42.40;;;5.80;99.90;;;;;;2084557;28;20082;-75
2023/02/12 05:25:18;;;;;;;89.50;44.35;;;5.80;99.90;;;;;;2087901;28;20028;-74
2023/02/12 05:26:20;;;;;;;86.95;42.20;;;5.80;99.90;;;;;;2087836;28;20113;-74
2023/02/12 05:27:21;;;;;;;87.43;43.15;;;5.70;99.90;;;;;;2083700;28;20033;-75
2023/02/12 05:28:21;;;;;;;90.85;44.42;;;5.80;99.90;;;;;;2090466;28;20471;-74
2023/02/12 05:29:22;;;;;;;94.35;45.13;;;5.70;99.90;;;;;;2084458;28;20028;-75
2023/02/12 05:30:23;;;;;;;91.35;43.88;;;5.70;99.90;;;;;;2086942;28;20100;-74
2023/02/12 05:31:23;;;;;;;96.05;46.55;;;5.70;99.90;;;;;;2087444;28;20055;-75
2023/02/12 05:32:24;;;;;;;97.30;45.70;;;5.70;99.90;;;;;;2078470;28;20100;-75
2023/02/12 05:33:24;;;;;;;95.07;45.58;;;5.70;99.90;;;;;;2082359;28;20132;-75
2023/02/12 05:34:25;;;;;;;102.55;46.63;;;5.70;99.90;;;;;;2078611;28;20121;-74
2023/02/12 05:35:25;;;;;;;92.75;44.22;;;5.70;99.90;;;;;;2078270;28;20033;-75
2023/02/12 05:36:26;;;;;;;101.18;47.10;;;5.70;99.90;;;;;;2083182;28;20087;-75
2023/02/12 05:37:27;;;;;;;103.15;47.03;;;5.70;99.90;;;;;;2072560;28;20257;-75
2023/02/12 05:38:27;;;;;;;103.93;47.90;;;5.70;99.90;;;;;;2082587;28;20452;-75
2023/02/12 05:39:28;;;;;;;99.05;45.38;;;5.70;99.90;;;;;;2084821;28;20049;-75
2023/02/12 05:40:28;;;;;;;106.28;47.78;;;5.70;99.90;;;;;;2089287;28;20024;-75
2023/02/12 05:41:33;;;;;;;109.70;48.33;;;5.70;99.90;;;;;;2093732;28;20036;-75
2023/02/12 05:42:34;;;;;;;102.80;47.17;;;5.70;99.90;;;;;;2089333;28;20024;-75
2023/02/12 05:43:34;;;;;;;104.25;47.67;;;5.80;99.90;;;;;;2092720;28;20028;-74
2023/02/12 05:44:35;;;;;;;101.63;46.85;;;5.80;99.90;;;;;;2084722;28;20033;-74
2023/02/12 05:45:36;;;;;;;106.30;48.78;;;5.70;99.90;;;;;;2081109;28;20033;-74